sensor_id;sensor_type;location;lat;lon;timestamp;P1;durP1;ratioP1;P2;durP2;ratioP2
9218;SDS011;4644;48.858;9.184;2023-07-29T16:16:58;3.73;;;1.73;;
9218;SDS011;4644;48.858;9.184;2023-07-29T16:19:27;1.70;;;1.53;;
9218;SDS011;4644;48.858;9.184;2023-07-29T16:21:55;1.27;;;1.27;;
9218;SDS011;4644;48.858;9.184;2023-07-29T16:24:22;1.60;;;1.50;;
9218;SDS011;4644;48.858;9.184;2023-07-29T16:26:49;1.60;;;1.50;;
9218;SDS011;4644;48.858;9.184;2023-07-29T16:29:17;1.45;;;1.40;;
9218;SDS011;4644;48.858;9.184;2023-07-29T16:31:44;1.70;;;1.60;;
9218;SDS011;4644;48.858;9.184;2023-07-29T16:34:11;1.80;;;1.70;;
9218;SDS011;4644;48.858;9.184;2023-07-29T16:36:40;1.83;;;1.73;;
9218;SDS011;4644;48.858;9.184;2023-07-29T16:39:07;1.70;;;1.60;;
9218;SDS011;4644;48.858;9.184;2023-07-29T16:41:35;1.80;;;1.70;;
9218;SDS011;4644;48.858;9.184;2023-07-29T16:44:02;2.92;;;1.70;;
9218;SDS011;4644;48.858;9.184;2023-07-29T16:46:29;1.88;;;1.40;;
9218;SDS011;4644;48.858;9.184;2023-07-29T16:48:56;1.60;;;1.50;;
9218;SDS011;4644;48.858;9.184;2023-07-29T16:51:23;1.45;;;1.35;;
9218;SDS011;4644;48.858;9.184;2023-07-29T16:53:52;2.05;;;1.60;;
9218;SDS011;4644;48.858;9.184;2023-07-29T16:56:19;1.88;;;1.77;;
9218;SDS011;4644;48.858;9.184;2023-07-29T16:58:46;1.58;;;1.48;;
9218;SDS011;4644;48.858;9.184;2023-07-29T17:01:13;1.20;;;1.20;;
9218;SDS011;4644;48.858;9.184;2023-07-29T17:03:40;1.83;;;1.42;;
9218;SDS011;4644;48.858;9.184;2023-07-29T17:06:08;1.25;;;1.23;;
9218;SDS011;4644;48.858;9.184;2023-07-29T17:08:35;1.60;;;1.50;;
9218;SDS011;4644;48.858;9.184;2023-07-29T17:11:04;1.50;;;1.40;;
9218;SDS011;4644;48.858;9.184;2023-07-29T17:13:31;1.70;;;1.60;;
9218;SDS011;4644;48.858;9.184;2023-07-29T17:15:58;1.73;;;1.63;;
9218;SDS011;4644;48.858;9.184;2023-07-29T17:35:35;1.90;;;1.70;;
9218;SDS011;4644;48.858;9.184;2023-07-29T17:38:02;1.60;;;1.50;;
9218;SDS011;4644;48.858;9.184;2023-07-29T17:40:34;1.80;;;1.60;;
9218;SDS011;4644;48.858;9.184;2023-07-29T17:43:01;1.80;;;1.70;;
9218;SDS011;4644;48.858;9.184;2023-07-29T17:45:30;1.88;;;1.70;;
9218;SDS011;4644;48.858;9.184;2023-07-29T17:47:57;2.38;;;1.83;;
9218;SDS011;4644;48.858;9.184;2023-07-29T17:50:24;2.60;;;1.70;;
9218;SDS011;4644;48.858;9.184;2023-07-29T17:52:52;1.63;;;1.52;;
9218;SDS011;4644;48.858;9.184;2023-07-29T17:55:20;1.30;;;1.30;;
9218;SDS011;4644;48.858;9.184;2023-07-29T17:57:47;1.48;;;1.20;;
9218;SDS011;4644;48.858;9.184;2023-07-29T18:00:14;1.30;;;1.20;;
9218;SDS011;4644;48.858;9.184;2023-07-29T18:02:44;2.13;;;1.10;;
9218;SDS011;4644;48.858;9.184;2023-07-29T18:05:11;1.20;;;1.10;;
9218;SDS011;4644;48.858;9.184;2023-07-29T18:07:38;1.30;;;1.20;;
9218;SDS011;4644;48.858;9.184;2023-07-29T18:10:05;1.27;;;1.20;;
9218;SDS011;4644;48.858;9.184;2023-07-29T18:12:34;1.42;;;1.33;;
9218;SDS011;4644;48.858;9.184;2023-07-29T18:15:04;1.25;;;1.15;;
9218;SDS011;4644;48.858;9.184;2023-07-29T18:17:31;1.38;;;1.27;;
9218;SDS011;4644;48.858;9.184;2023-07-29T18:20:00;1.50;;;1.40;;
9218;SDS011;4644;48.858;9.184;2023-07-29T18:22:27;1.47;;;1.37;;
9218;SDS011;4644;48.858;9.184;2023-07-29T18:24:55;1.30;;;1.20;;
9218;SDS011;4644;48.858;9.184;2023-07-29T18:27:22;1.17;;;1.17;;
9218;SDS011;4644;48.858;9.184;2023-07-29T18:29:49;1.30;;;1.20;;
9218;SDS011;4644;48.858;9.184;2023-07-29T18:32:17;1.50;;;1.40;;
9218;SDS011;4644;48.858;9.184;2023-07-29T18:34:44;1.65;;;1.40;;
9218;SDS011;4644;48.858;9.184;2023-07-29T18:37:13;2.50;;;1.60;;
9218;SDS011;4644;48.858;9.184;2023-07-29T18:39:40;2.10;;;1.60;;
9218;SDS011;4644;48.858;9.184;2023-07-29T18:42:07;1.45;;;1.35;;
9218;SDS011;4644;48.858;9.184;2023-07-29T18:44:34;1.23;;;1.20;;
9218;SDS011;4644;48.858;9.184;2023-07-29T18:47:01;1.45;;;1.30;;
9218;SDS011;4644;48.858;9.184;2023-07-29T18:49:29;1.45;;;1.35;;
9218;SDS011;4644;48.858;9.184;2023-07-29T18:51:56;1.58;;;1.30;;
9218;SDS011;4644;48.858;9.184;2023-07-29T18:54:24;1.27;;;1.25;;
9218;SDS011;4644;48.858;9.184;2023-07-29T18:56:51;1.23;;;1.20;;
9218;SDS011;4644;48.858;9.184;2023-07-29T18:59:18;1.50;;;1.40;;
9218;SDS011;4644;48.858;9.184;2023-07-29T19:01:45;1.25;;;1.15;;
9218;SDS011;4644;48.858;9.184;2023-07-29T19:04:13;1.63;;;1.25;;
9218;SDS011;4644;48.858;9.184;2023-07-29T19:06:40;1.23;;;1.23;;
9218;SDS011;4644;48.858;9.184;2023-07-29T19:09:07;2.53;;;1.50;;
9218;SDS011;4644;48.858;9.184;2023-07-29T19:11:36;1.50;;;1.40;;
9218;SDS011;4644;48.858;9.184;2023-07-29T19:14:03;1.67;;;1.58;;
9218;SDS011;4644;48.858;9.184;2023-07-29T19:16:30;1.50;;;1.40;;
9218;SDS011;4644;48.858;9.184;2023-07-29T19:18:58;2.20;;;2.00;;
9218;SDS011;4644;48.858;9.184;2023-07-29T19:21:25;1.90;;;1.70;;
9218;SDS011;4644;48.858;9.184;2023-07-29T19:23:52;1.60;;;1.50;;
9218;SDS011;4644;48.858;9.184;2023-07-29T19:26:19;1.60;;;1.50;;
9218;SDS011;4644;48.858;9.184;2023-07-29T19:28:48;2.20;;;2.00;;
9218;SDS011;4644;48.858;9.184;2023-07-29T19:31:16;2.17;;;1.98;;
9218;SDS011;4644;48.858;9.184;2023-07-29T19:33:43;2.00;;;1.73;;
9218;SDS011;4644;48.858;9.184;2023-07-29T19:36:10;2.30;;;2.10;;
9218;SDS011;4644;48.858;9.184;2023-07-29T19:38:38;2.38;;;2.17;;
9218;SDS011;4644;48.858;9.184;2023-07-29T19:41:06;2.00;;;1.90;;
9218;SDS011;4644;48.858;9.184;2023-07-29T19:43:33;2.33;;;2.13;;
9218;SDS011;4644;48.858;9.184;2023-07-29T19:46:02;2.00;;;1.90;;
9218;SDS011;4644;48.858;9.184;2023-07-29T19:48:30;2.38;;;2.20;;
9218;SDS011;4644;48.858;9.184;2023-07-29T19:50:57;2.33;;;2.10;;
9218;SDS011;4644;48.858;9.184;2023-07-29T19:53:24;3.10;;;2.38;;
9218;SDS011;4644;48.858;9.184;2023-07-29T19:55:51;2.40;;;2.20;;
9218;SDS011;4644;48.858;9.184;2023-07-29T19:58:18;2.30;;;2.10;;
9218;SDS011;4644;48.858;9.184;2023-07-29T20:00:48;2.40;;;2.20;;
9218;SDS011;4644;48.858;9.184;2023-07-29T20:03:18;2.58;;;2.10;;
9218;SDS011;4644;48.858;9.184;2023-07-29T20:05:45;2.40;;;2.20;;
9218;SDS011;4644;48.858;9.184;2023-07-29T20:08:13;2.80;;;2.50;;
9218;SDS011;4644;48.858;9.184;2023-07-29T20:10:40;2.63;;;2.10;;
9218;SDS011;4644;48.858;9.184;2023-07-29T20:13:07;2.67;;;2.47;;
9218;SDS011;4644;48.858;9.184;2023-07-29T20:15:34;2.72;;;2.40;;
9218;SDS011;4644;48.858;9.184;2023-07-29T20:18:01;3.33;;;2.53;;
9218;SDS011;4644;48.858;9.184;2023-07-29T20:20:30;2.83;;;2.58;;
9218;SDS011;4644;48.858;9.184;2023-07-29T20:22:57;2.63;;;2.33;;
9218;SDS011;4644;48.858;9.184;2023-07-29T20:25:24;2.70;;;2.50;;
9218;SDS011;4644;48.858;9.184;2023-07-29T20:27:51;3.95;;;2.80;;
9218;SDS011;4644;48.858;9.184;2023-07-29T20:30:18;3.03;;;2.72;;
9218;SDS011;4644;48.858;9.184;2023-07-29T20:32:45;3.20;;;2.90;;
9218;SDS011;4644;48.858;9.184;2023-07-29T20:35:13;3.08;;;2.72;;
9218;SDS011;4644;48.858;9.184;2023-07-29T20:37:41;2.90;;;2.70;;
9218;SDS011;4644;48.858;9.184;2023-07-29T20:40:09;2.65;;;2.40;;
9218;SDS011;4644;48.858;9.184;2023-07-29T20:42:37;3.05;;;2.85;;
9218;SDS011;4644;48.858;9.184;2023-07-29T20:45:05;3.97;;;2.70;;
9218;SDS011;4644;48.858;9.184;2023-07-29T20:47:32;2.80;;;2.60;;
9218;SDS011;4644;48.858;9.184;2023-07-29T20:50:01;3.03;;;2.72;;
9218;SDS011;4644;48.858;9.184;2023-07-29T20:52:28;3.22;;;2.50;;
9218;SDS011;4644;48.858;9.184;2023-07-29T20:54:57;3.20;;;2.63;;
9218;SDS011;4644;48.858;9.184;2023-07-29T20:57:24;3.05;;;2.72;;
9218;SDS011;4644;48.858;9.184;2023-07-29T20:59:51;2.77;;;2.57;;
9218;SDS011;4644;48.858;9.184;2023-07-29T21:02:19;3.22;;;2.70;;
9218;SDS011;4644;48.858;9.184;2023-07-29T21:04:46;3.33;;;2.80;;
9218;SDS011;4644;48.858;9.184;2023-07-29T21:07:13;3.10;;;2.80;;
9218;SDS011;4644;48.858;9.184;2023-07-29T21:09:40;3.10;;;2.80;;
9218;SDS011;4644;48.858;9.184;2023-07-29T21:12:09;3.17;;;2.70;;
9218;SDS011;4644;48.858;9.184;2023-07-29T21:14:36;2.80;;;2.60;;
9218;SDS011;4644;48.858;9.184;2023-07-29T21:17:03;3.47;;;2.70;;
9218;SDS011;4644;48.858;9.184;2023-07-29T21:19:30;3.35;;;2.85;;
9218;SDS011;4644;48.858;9.184;2023-07-29T21:21:58;3.67;;;2.50;;
9218;SDS011;4644;48.858;9.184;2023-07-29T21:24:25;2.80;;;2.60;;
9218;SDS011;4644;48.858;9.184;2023-07-29T21:26:52;3.10;;;2.80;;
9218;SDS011;4644;48.858;9.184;2023-07-29T21:29:21;2.63;;;2.43;;
9218;SDS011;4644;48.858;9.184;2023-07-29T21:31:48;3.30;;;2.90;;
9218;SDS011;4644;48.858;9.184;2023-07-29T21:34:15;3.20;;;2.90;;
9218;SDS011;4644;48.858;9.184;2023-07-29T21:36:42;3.05;;;2.75;;
9218;SDS011;4644;48.858;9.184;2023-07-29T21:39:09;3.42;;;3.13;;
9218;SDS011;4644;48.858;9.184;2023-07-29T21:41:37;2.80;;;2.60;;
9218;SDS011;4644;48.858;9.184;2023-07-29T21:44:04;3.10;;;2.83;;
9218;SDS011;4644;48.858;9.184;2023-07-29T21:46:33;3.40;;;3.10;;
9218;SDS011;4644;48.858;9.184;2023-07-29T21:49:00;3.05;;;2.85;;
9218;SDS011;4644;48.858;9.184;2023-07-29T21:51:30;3.17;;;2.78;;
9218;SDS011;4644;48.858;9.184;2023-07-29T21:53:57;3.08;;;2.78;;
9218;SDS011;4644;48.858;9.184;2023-07-29T21:56:24;3.17;;;2.90;;
9218;SDS011;4644;48.858;9.184;2023-07-29T21:58:51;5.53;;;2.77;;
9218;SDS011;4644;48.858;9.184;2023-07-29T22:01:18;2.88;;;2.67;;
9218;SDS011;4644;48.858;9.184;2023-07-29T22:03:47;3.10;;;2.80;;
9218;SDS011;4644;48.858;9.184;2023-07-29T22:06:14;3.70;;;2.85;;
9218;SDS011;4644;48.858;9.184;2023-07-29T22:08:43;3.03;;;2.80;;
9218;SDS011;4644;48.858;9.184;2023-07-29T22:11:10;2.80;;;2.60;;
9218;SDS011;4644;48.858;9.184;2023-07-29T22:13:37;3.83;;;3.22;;
9218;SDS011;4644;48.858;9.184;2023-07-29T22:16:05;3.85;;;3.42;;
9218;SDS011;4644;48.858;9.184;2023-07-29T22:18:33;3.90;;;3.40;;
9218;SDS011;4644;48.858;9.184;2023-07-29T22:21:01;4.07;;;3.70;;
9218;SDS011;4644;48.858;9.184;2023-07-29T22:23:28;4.10;;;3.60;;
9218;SDS011;4644;48.858;9.184;2023-07-29T22:25:56;3.55;;;3.20;;
9218;SDS011;4644;48.858;9.184;2023-07-29T22:28:24;4.03;;;3.35;;
9218;SDS011;4644;48.858;9.184;2023-07-29T22:30:51;4.10;;;3.57;;
9218;SDS011;4644;48.858;9.184;2023-07-29T22:33:18;4.95;;;3.92;;
9218;SDS011;4644;48.858;9.184;2023-07-29T22:35:45;4.53;;;3.70;;
9218;SDS011;4644;48.858;9.184;2023-07-29T22:38:14;6.97;;;3.97;;
9218;SDS011;4644;48.858;9.184;2023-07-29T22:40:41;4.25;;;3.70;;
9218;SDS011;4644;48.858;9.184;2023-07-29T22:43:08;6.38;;;4.00;;
9218;SDS011;4644;48.858;9.184;2023-07-29T22:45:36;5.15;;;4.10;;
9218;SDS011;4644;48.858;9.184;2023-07-29T22:48:03;5.15;;;4.10;;
9218;SDS011;4644;48.858;9.184;2023-07-29T22:50:31;5.03;;;4.20;;
9218;SDS011;4644;48.858;9.184;2023-07-29T22:52:58;6.00;;;4.55;;
9218;SDS011;4644;48.858;9.184;2023-07-29T22:55:26;4.97;;;4.47;;
9218;SDS011;4644;48.858;9.184;2023-07-29T22:57:53;4.50;;;4.10;;
9218;SDS011;4644;48.858;9.184;2023-07-29T23:00:20;5.32;;;4.82;;
9218;SDS011;4644;48.858;9.184;2023-07-29T23:02:47;5.60;;;4.75;;
9218;SDS011;4644;48.858;9.184;2023-07-29T23:05:15;7.38;;;5.20;;
9218;SDS011;4644;48.858;9.184;2023-07-29T23:07:42;7.43;;;5.75;;
9218;SDS011;4644;48.858;9.184;2023-07-29T23:10:09;6.73;;;5.40;;
9218;SDS011;4644;48.858;9.184;2023-07-29T23:12:38;9.90;;;5.72;;
9218;SDS011;4644;48.858;9.184;2023-07-29T23:15:05;12.00;;;6.38;;
9218;SDS011;4644;48.858;9.184;2023-07-29T23:17:32;6.70;;;5.30;;
9218;SDS011;4644;48.858;9.184;2023-07-29T23:19:59;9.70;;;6.15;;
9218;SDS011;4644;48.858;9.184;2023-07-29T23:22:27;7.45;;;5.82;;
9218;SDS011;4644;48.858;9.184;2023-07-29T23:24:54;8.77;;;6.10;;
9218;SDS011;4644;48.858;9.184;2023-07-29T23:27:21;8.52;;;5.38;;
9218;SDS011;4644;48.858;9.184;2023-07-29T23:29:49;10.70;;;5.07;;
9218;SDS011;4644;48.858;9.184;2023-07-29T23:32:17;5.10;;;3.90;;
9218;SDS011;4644;48.858;9.184;2023-07-29T23:34:44;4.10;;;3.45;;
9218;SDS011;4644;48.858;9.184;2023-07-29T23:37:11;4.60;;;3.30;;
9218;SDS011;4644;48.858;9.184;2023-07-29T23:39:38;5.43;;;3.72;;
9218;SDS011;4644;48.858;9.184;2023-07-29T23:42:05;4.17;;;3.70;;
9218;SDS011;4644;48.858;9.184;2023-07-29T23:44:32;4.10;;;2.90;;
9218;SDS011;4644;48.858;9.184;2023-07-29T23:47:00;2.60;;;2.30;;
9218;SDS011;4644;48.858;9.184;2023-07-29T23:49:28;2.20;;;2.00;;
9218;SDS011;4644;48.858;9.184;2023-07-29T23:51:55;2.22;;;1.70;;
9218;SDS011;4644;48.858;9.184;2023-07-29T23:54:22;2.35;;;1.90;;
9218;SDS011;4644;48.858;9.184;2023-07-29T23:56:49;2.78;;;1.90;;
9218;SDS011;4644;48.858;9.184;2023-07-29T23:59:17;2.70;;;2.28;;
